createdAt,value
2018-06-14T00:02:00.157Z,12.10
2018-06-14T00:04:28.627Z,12.00
2018-06-14T00:06:57.099Z,12.00
2018-06-14T00:09:25.703Z,12.00
2018-06-14T00:11:54.317Z,11.90
2018-06-14T00:14:22.916Z,11.90
2018-06-14T00:16:51.336Z,11.90
2018-06-14T00:19:19.840Z,12.00
2018-06-14T00:21:48.332Z,12.00
2018-06-14T00:24:16.883Z,12.00
2018-06-14T00:26:45.348Z,12.10
2018-06-14T00:29:13.748Z,12.20
2018-06-14T00:31:42.228Z,12.10
2018-06-14T00:34:10.714Z,12.30
2018-06-14T00:36:39.199Z,12.10
2018-06-14T00:39:08.306Z,12.00
2018-06-14T00:41:36.707Z,12.10
2018-06-14T00:44:05.467Z,11.90
2018-06-14T00:46:34.001Z,11.90
2018-06-14T00:49:02.658Z,11.90
2018-06-14T00:51:31.307Z,11.90
2018-06-14T00:53:59.758Z,11.80
2018-06-14T00:56:29.339Z,11.80
2018-06-14T00:58:57.820Z,11.80
2018-06-14T01:01:26.277Z,11.90
2018-06-14T01:03:55.368Z,11.80
2018-06-14T01:06:23.844Z,11.90
2018-06-14T01:08:52.392Z,12.10
2018-06-14T01:11:20.836Z,12.10
2018-06-14T01:13:49.384Z,12.20
2018-06-14T01:16:24.348Z,12.20
2018-06-14T01:18:53.186Z,12.30
2018-06-14T01:21:21.672Z,12.20
2018-06-14T01:23:50.257Z,12.30
2018-06-14T01:26:18.683Z,12.30
2018-06-14T01:28:47.099Z,12.30
2018-06-14T01:31:15.606Z,12.30
2018-06-14T01:33:44.020Z,12.40
2018-06-14T01:36:12.660Z,12.30
2018-06-14T01:38:41.327Z,12.10
2018-06-14T01:41:09.729Z,12.00
2018-06-14T01:43:38.122Z,12.00
2018-06-14T01:46:06.659Z,12.00
2018-06-14T01:48:35.076Z,12.00
2018-06-14T01:51:03.487Z,12.20
2018-06-14T01:53:32.127Z,12.10
2018-06-14T01:56:00.614Z,12.00
2018-06-14T01:58:29.776Z,11.90
2018-06-14T02:00:59.927Z,12.00
2018-06-14T02:03:28.476Z,11.90
2018-06-14T02:05:57.167Z,11.90
2018-06-14T02:08:25.694Z,11.90
2018-06-14T02:10:54.188Z,11.80
2018-06-14T02:13:22.707Z,11.80
2018-06-14T02:15:51.176Z,11.70
2018-06-14T02:18:19.723Z,11.70
2018-06-14T02:20:48.195Z,11.70
2018-06-14T02:23:16.757Z,11.70
2018-06-14T02:25:45.153Z,11.70
2018-06-14T02:28:13.888Z,11.80
2018-06-14T02:30:43.819Z,11.80
2018-06-14T02:33:12.419Z,11.70
2018-06-14T02:35:41.029Z,11.70
2018-06-14T02:38:09.524Z,11.70
2018-06-14T02:40:38.465Z,11.70
2018-06-14T02:43:07.189Z,11.80
2018-06-14T02:45:35.640Z,11.80
2018-06-14T02:48:04.160Z,11.80
2018-06-14T02:50:32.607Z,12.00
2018-06-14T02:53:01.092Z,12.10
2018-06-14T02:57:58.019Z,12.00
2018-06-14T03:00:26.566Z,11.90
2018-06-14T03:02:54.967Z,11.80
2018-06-14T03:05:23.427Z,11.70
2018-06-14T03:07:52.162Z,11.70
2018-06-14T03:10:20.652Z,11.60
2018-06-14T03:12:49.178Z,11.50
2018-06-14T03:15:17.672Z,11.50
2018-06-14T03:17:46.227Z,11.40
2018-06-14T03:20:14.763Z,11.50
2018-06-14T03:22:43.364Z,11.50
2018-06-14T03:25:11.927Z,11.40
2018-06-14T03:27:40.347Z,11.40
2018-06-14T03:30:08.988Z,11.40
2018-06-14T03:32:37.577Z,11.40
2018-06-14T03:35:06.995Z,11.30
2018-06-14T03:37:35.531Z,11.40
2018-06-14T03:40:04.179Z,11.30
2018-06-14T03:42:32.743Z,11.40
2018-06-14T03:45:01.448Z,11.30
2018-06-14T03:47:29.923Z,11.30
2018-06-14T03:49:58.560Z,11.20
2018-06-14T03:52:27.411Z,11.20
2018-06-14T03:54:56.940Z,11.30
2018-06-14T03:57:25.547Z,11.40
2018-06-14T03:59:54.028Z,11.50
2018-06-14T04:02:22.559Z,11.40
2018-06-14T04:04:51.095Z,11.40
2018-06-14T04:07:19.562Z,11.40
2018-06-14T04:09:48.031Z,11.50
2018-06-14T04:12:16.498Z,11.50
2018-06-14T04:14:45.287Z,11.50
2018-06-14T04:17:13.820Z,11.50
2018-06-14T04:19:42.459Z,11.50
2018-06-14T04:22:11.204Z,11.60
2018-06-14T04:24:40.720Z,11.70
2018-06-14T04:27:09.830Z,11.70
2018-06-14T04:29:38.489Z,11.80
2018-06-14T04:32:07.768Z,11.90
2018-06-14T04:34:36.374Z,12.10
2018-06-14T04:37:05.244Z,12.20
2018-06-14T04:39:34.571Z,12.20
2018-06-14T04:42:03.041Z,12.40
2018-06-14T04:44:31.634Z,12.30
2018-06-14T04:47:00.479Z,12.30
2018-06-14T04:49:29.755Z,12.50
2018-06-14T04:51:58.233Z,12.50
2018-06-14T04:54:26.922Z,12.70
2018-06-14T04:56:56.145Z,12.70
2018-06-14T04:59:24.668Z,12.80
2018-06-14T05:01:53.663Z,13.00
2018-06-14T05:04:22.215Z,12.90
2018-06-14T05:06:50.820Z,12.80
2018-06-14T05:09:19.501Z,12.80
2018-06-14T05:11:47.982Z,12.80
2018-06-14T05:14:16.494Z,12.70
2018-06-14T05:16:45.067Z,12.70
2018-06-14T05:19:14.353Z,12.70
2018-06-14T05:21:42.980Z,12.80
2018-06-14T05:24:11.588Z,12.80
2018-06-14T05:26:41.136Z,12.80
2018-06-14T05:29:09.815Z,12.80
2018-06-14T05:31:38.378Z,12.80
2018-06-14T05:34:07.689Z,12.90
2018-06-14T05:36:36.276Z,13.00
2018-06-14T05:39:07.886Z,13.20
2018-06-14T05:41:36.574Z,13.20
2018-06-14T05:44:05.998Z,13.30
2018-06-14T05:46:35.041Z,13.40
2018-06-14T05:49:04.334Z,13.40
2018-06-14T05:51:33.176Z,13.40
2018-06-14T05:54:02.369Z,13.40
2018-06-14T05:56:30.914Z,13.50
2018-06-14T05:58:59.543Z,13.60
2018-06-14T06:01:28.032Z,13.70
2018-06-14T06:03:56.607Z,13.80
2018-06-14T06:06:25.097Z,13.90
2018-06-14T06:08:53.839Z,14.10
2018-06-14T06:11:22.427Z,14.00
2018-06-14T06:13:51.176Z,14.00
2018-06-14T06:16:19.951Z,14.00
2018-06-14T06:18:48.500Z,14.20
2018-06-14T06:21:17.166Z,14.40
2018-06-14T06:23:45.668Z,14.30
2018-06-14T06:26:14.332Z,14.40
2018-06-14T06:28:42.931Z,14.50
2018-06-14T06:31:11.446Z,14.60
2018-06-14T06:33:39.990Z,14.80
2018-06-14T06:36:08.515Z,14.90
2018-06-14T06:38:37.182Z,15.00
2018-06-14T06:41:05.830Z,15.10
2018-06-14T06:43:34.451Z,15.20
2018-06-14T06:46:02.996Z,15.40
2018-06-14T06:48:31.503Z,15.30
2018-06-14T06:50:59.930Z,15.20
2018-06-14T06:53:28.488Z,15.20
2018-06-14T06:55:57.028Z,15.20
2018-06-14T06:58:25.935Z,15.40
2018-06-14T07:00:54.393Z,15.50
2018-06-14T07:03:22.829Z,15.50
2018-06-14T07:05:51.363Z,15.40
2018-06-14T07:08:19.931Z,15.50
2018-06-14T07:10:48.368Z,15.80
2018-06-14T07:13:16.859Z,16.00
2018-06-14T07:15:45.390Z,16.20
2018-06-14T07:18:13.925Z,16.20
2018-06-14T07:20:42.356Z,16.30
2018-06-14T07:23:10.957Z,16.30
2018-06-14T07:25:39.404Z,16.20
2018-06-14T07:28:07.845Z,16.20
2018-06-14T07:30:36.284Z,15.90
2018-06-14T07:33:04.959Z,16.00
2018-06-14T07:35:33.525Z,16.00
2018-06-14T07:38:02.048Z,16.20
2018-06-14T07:40:30.984Z,16.40
2018-06-14T07:42:59.801Z,16.30
2018-06-14T07:45:28.166Z,16.20
2018-06-14T07:47:56.766Z,16.20
2018-06-14T07:50:25.193Z,16.60
2018-06-14T07:52:54.043Z,16.90
2018-06-14T07:55:22.690Z,17.20
2018-06-14T07:57:51.393Z,17.50
2018-06-14T08:00:19.916Z,17.40
2018-06-14T08:02:48.352Z,17.40
2018-06-14T08:05:16.933Z,17.40
2018-06-14T08:07:45.676Z,17.40
2018-06-14T08:10:14.991Z,17.30
2018-06-14T08:12:43.525Z,17.00
2018-06-14T08:15:11.944Z,17.10
2018-06-14T08:17:40.524Z,16.90
2018-06-14T08:20:09.046Z,16.80
2018-06-14T08:22:37.585Z,17.00
2018-06-14T08:25:06.172Z,17.10
2018-06-14T08:27:34.588Z,17.20
2018-06-14T08:30:03.081Z,17.30
2018-06-14T08:32:31.501Z,17.40
2018-06-14T08:35:00.121Z,17.60
2018-06-14T08:37:30.212Z,17.70
2018-06-14T08:39:58.928Z,17.70
2018-06-14T08:42:27.551Z,17.70
2018-06-14T08:44:57.390Z,17.90
2018-06-14T08:47:26.220Z,17.70
2018-06-14T08:49:54.833Z,17.70
2018-06-14T08:52:23.583Z,17.50
2018-06-14T08:54:52.131Z,17.60
2018-06-14T08:57:20.864Z,17.60
2018-06-14T09:02:17.653Z,18.10
2018-06-14T09:04:46.210Z,18.20
2018-06-14T09:07:14.965Z,18.30
2018-06-14T09:09:43.475Z,18.20
2018-06-14T09:12:11.896Z,18.30
2018-06-14T09:14:40.309Z,18.30
2018-06-14T09:17:08.727Z,18.20
2018-06-14T09:19:37.388Z,18.40
2018-06-14T09:22:06.139Z,18.00
2018-06-14T09:24:34.688Z,17.90
2018-06-14T09:27:03.323Z,17.90
2018-06-14T09:29:31.827Z,18.20
2018-06-14T09:32:00.532Z,18.10
2018-06-14T09:34:29.619Z,18.30
2018-06-14T09:36:58.096Z,18.50
2018-06-14T09:39:26.788Z,18.40
2018-06-14T09:41:55.374Z,18.40
2018-06-14T09:44:24.144Z,18.20
2018-06-14T09:46:52.605Z,18.30
2018-06-14T09:51:49.308Z,18.10
2018-06-14T09:54:17.923Z,18.10
2018-06-14T09:56:47.087Z,18.00
2018-06-14T09:59:15.538Z,18.10
2018-06-14T10:01:44.028Z,18.30
2018-06-14T10:04:12.653Z,18.50
2018-06-14T10:06:41.071Z,18.80
2018-06-14T10:09:11.360Z,19.00
2018-06-14T10:11:39.896Z,19.10
2018-06-14T10:14:09.033Z,19.20
2018-06-14T10:16:37.631Z,19.50
2018-06-14T10:19:06.324Z,19.70
2018-06-14T10:21:34.855Z,19.60
2018-06-14T10:24:04.096Z,19.30
2018-06-14T10:26:32.679Z,18.90
2018-06-14T10:29:01.192Z,19.00
2018-06-14T10:31:29.645Z,19.20
2018-06-14T10:33:58.152Z,19.50
2018-06-14T10:36:26.739Z,19.20
2018-06-14T10:38:55.571Z,19.30
2018-06-14T10:41:24.012Z,19.40
2018-06-14T10:43:52.493Z,19.60
2018-06-14T10:46:21.012Z,19.60
2018-06-14T10:48:49.467Z,19.70
2018-06-14T10:51:17.896Z,20.00
2018-06-14T10:53:46.436Z,20.00
2018-06-14T10:56:14.933Z,20.10
2018-06-14T10:58:43.518Z,20.20
2018-06-14T11:03:40.319Z,19.90
2018-06-14T11:06:09.019Z,19.50
2018-06-14T11:08:37.497Z,19.20
2018-06-14T11:11:06.018Z,19.20
2018-06-14T11:13:34.454Z,19.00
2018-06-14T11:16:02.908Z,18.90
2018-06-14T11:18:31.316Z,18.80
2018-06-14T11:20:59.772Z,18.80
2018-06-14T11:23:28.467Z,18.80
2018-06-14T11:25:57.081Z,19.00
2018-06-14T11:28:25.537Z,18.90
2018-06-14T11:30:54.036Z,19.00
2018-06-14T11:33:22.530Z,18.90
2018-06-14T11:35:51.095Z,18.80
2018-06-14T11:38:19.634Z,19.00
2018-06-14T11:40:48.057Z,18.60
2018-06-14T11:43:16.822Z,18.90
2018-06-14T11:45:45.543Z,18.80
2018-06-14T11:48:14.745Z,19.40
2018-06-14T11:50:43.493Z,19.40
2018-06-14T11:53:12.158Z,19.60
2018-06-14T11:55:40.714Z,20.00
2018-06-14T11:58:09.274Z,20.50
2018-06-14T12:00:37.853Z,20.80
2018-06-14T12:03:06.518Z,21.40
2018-06-14T12:05:35.285Z,22.40
2018-06-14T12:08:04.552Z,22.70
2018-06-14T12:10:33.082Z,22.80
2018-06-14T12:13:02.335Z,23.20
2018-06-14T12:15:30.876Z,22.90
2018-06-14T12:17:59.511Z,22.30
2018-06-14T12:20:28.897Z,22.40
2018-06-14T12:22:57.322Z,23.10
2018-06-14T12:25:25.848Z,23.60
2018-06-14T12:27:54.373Z,23.70
2018-06-14T12:30:23.065Z,24.00
2018-06-14T12:32:51.601Z,23.90
2018-06-14T12:35:20.399Z,23.70
2018-06-14T12:37:48.950Z,23.70
2018-06-14T12:40:17.478Z,23.70
2018-06-14T12:42:46.043Z,23.50
2018-06-14T12:45:15.239Z,23.90
2018-06-14T12:47:43.778Z,23.40
2018-06-14T12:50:12.555Z,22.90
2018-06-14T12:52:41.144Z,22.30
2018-06-14T12:55:09.558Z,22.00
2018-06-14T12:57:38.114Z,22.10
2018-06-14T13:00:06.628Z,22.20
2018-06-14T13:02:35.217Z,21.50
2018-06-14T13:05:03.659Z,21.50
2018-06-14T13:07:32.196Z,21.80
2018-06-14T13:10:00.615Z,22.10
2018-06-14T13:12:29.083Z,22.80
2018-06-14T13:14:57.641Z,23.00
2018-06-14T13:17:26.118Z,23.50
2018-06-14T13:19:54.548Z,23.30
2018-06-14T13:22:23.846Z,23.20
2018-06-14T13:24:52.383Z,23.20
2018-06-14T13:27:20.884Z,23.30
2018-06-14T13:29:49.346Z,23.90
2018-06-14T13:32:17.989Z,24.60
2018-06-14T13:34:46.502Z,25.10
2018-06-14T13:37:14.988Z,24.80
2018-06-14T13:39:43.559Z,24.60
2018-06-14T13:42:12.054Z,24.90
2018-06-14T13:44:40.556Z,25.50
2018-06-14T13:47:09.187Z,26.20
2018-06-14T13:49:37.627Z,27.00
2018-06-14T13:52:06.097Z,27.20
2018-06-14T13:54:34.757Z,26.70
2018-06-14T13:57:03.520Z,26.90
2018-06-14T13:59:31.874Z,27.80
2018-06-14T14:02:00.508Z,28.10
2018-06-14T14:04:29.406Z,28.10
2018-06-14T14:07:03.574Z,27.60
2018-06-14T14:09:32.054Z,28.50
2018-06-14T14:12:00.718Z,29.80
2018-06-14T14:14:29.523Z,30.30
2018-06-14T14:16:58.320Z,31.20
2018-06-14T14:19:26.934Z,30.60
2018-06-14T14:21:55.415Z,29.20
2018-06-14T14:24:24.015Z,28.50
2018-06-14T14:26:52.557Z,29.20
2018-06-14T14:29:21.102Z,30.00
2018-06-14T14:31:49.832Z,30.20
2018-06-14T14:34:18.412Z,31.20
2018-06-14T14:36:49.543Z,31.30
2018-06-14T14:39:18.122Z,31.10
2018-06-14T14:41:46.709Z,31.80
2018-06-14T14:44:15.504Z,31.50
2018-06-14T14:46:44.324Z,31.50
2018-06-14T14:49:13.035Z,31.80
2018-06-14T14:51:41.659Z,31.50
2018-06-14T14:54:10.286Z,31.70
2018-06-14T14:56:38.804Z,31.00
2018-06-14T14:59:07.253Z,29.80
2018-06-14T15:01:35.993Z,30.00
2018-06-14T15:04:04.674Z,30.60
2018-06-14T15:06:33.268Z,30.50
2018-06-14T15:09:03.745Z,30.90
2018-06-14T15:11:32.273Z,30.50
2018-06-14T15:14:00.715Z,31.30
2018-06-14T15:16:29.212Z,31.20
2018-06-14T15:18:57.810Z,31.90
2018-06-14T15:21:26.263Z,31.50
2018-06-14T15:23:54.760Z,29.50
2018-06-14T15:26:23.356Z,28.10
2018-06-14T15:28:52.020Z,28.10
2018-06-14T15:31:20.774Z,28.50
2018-06-14T15:33:49.389Z,27.90
2018-06-14T15:36:17.881Z,27.60
2018-06-14T15:38:46.540Z,27.40
2018-06-14T15:41:15.180Z,28.10
2018-06-14T15:43:43.954Z,29.10
2018-06-14T15:46:12.823Z,30.50
2018-06-14T15:48:41.304Z,31.00
2018-06-14T15:51:09.880Z,32.50
2018-06-14T15:53:38.544Z,32.30
2018-06-14T15:56:23.715Z,32.20
2018-06-14T15:58:52.280Z,32.20
2018-06-14T16:01:21.103Z,31.70
2018-06-14T16:03:49.840Z,31.70
2018-06-14T16:06:18.322Z,31.60
2018-06-14T16:08:46.848Z,31.80
2018-06-14T16:11:16.369Z,31.40
2018-06-14T16:13:44.937Z,31.00
2018-06-14T16:16:13.448Z,29.90
2018-06-14T16:18:42.098Z,29.50
2018-06-14T16:21:18.176Z,29.80
2018-06-14T16:23:46.593Z,29.80
2018-06-14T16:26:15.207Z,27.90
2018-06-14T16:28:44.141Z,27.30
2018-06-14T16:31:13.106Z,27.10
2018-06-14T16:36:10.322Z,28.70
2018-06-14T16:38:38.870Z,29.40
2018-06-14T16:41:07.409Z,28.80
2018-06-14T16:43:36.156Z,28.60
2018-06-14T16:46:05.307Z,28.70
2018-06-14T16:48:33.889Z,28.90
2018-06-14T16:51:02.495Z,28.90
2018-06-14T16:53:31.255Z,29.00
2018-06-14T16:55:59.843Z,28.60
2018-06-14T16:58:28.344Z,28.30
2018-06-14T17:00:56.883Z,27.90
2018-06-14T17:03:25.792Z,27.30
2018-06-14T17:05:54.407Z,26.50
2018-06-14T17:08:23.005Z,26.50
2018-06-14T17:10:51.672Z,26.10
2018-06-14T17:15:48.446Z,25.70
2018-06-14T17:18:16.951Z,26.00
2018-06-14T17:20:45.566Z,26.10
2018-06-14T17:23:14.079Z,26.10
2018-06-14T17:25:42.739Z,25.90
2018-06-14T17:30:39.443Z,25.70
2018-06-14T17:33:08.058Z,25.70
2018-06-14T17:35:36.590Z,25.50
2018-06-14T17:38:05.203Z,25.50
2018-06-14T17:40:34.019Z,25.10
2018-06-14T17:43:02.610Z,25.00
2018-06-14T17:45:31.310Z,24.80
2018-06-14T17:47:59.927Z,24.40
2018-06-14T17:50:28.431Z,24.20
2018-06-14T17:52:56.951Z,23.90
2018-06-14T17:55:25.925Z,23.40
2018-06-14T17:57:54.473Z,22.90
2018-06-14T18:00:23.039Z,22.20
2018-06-14T18:02:51.713Z,21.80
2018-06-14T18:05:20.239Z,21.60
2018-06-14T18:07:48.888Z,21.40
2018-06-14T18:10:17.399Z,21.10
2018-06-14T18:12:45.963Z,20.90
2018-06-14T18:15:14.567Z,20.40
2018-06-14T18:17:43.272Z,20.30
2018-06-14T18:20:12.588Z,20.00
2018-06-14T18:22:41.227Z,19.90
2018-06-14T18:25:10.103Z,19.80
2018-06-14T18:27:38.586Z,19.50
2018-06-14T18:30:07.182Z,19.30
2018-06-14T18:32:35.809Z,19.30
2018-06-14T18:35:04.575Z,19.20
2018-06-14T18:37:34.023Z,19.00
2018-06-14T18:40:02.620Z,18.90
2018-06-14T18:42:31.118Z,18.80
2018-06-14T18:44:59.604Z,18.60
2018-06-14T18:47:28.336Z,18.50
2018-06-14T18:49:56.944Z,18.50
2018-06-14T18:52:25.476Z,18.40
2018-06-14T18:54:54.137Z,18.30
2018-06-14T18:57:22.745Z,18.20
2018-06-14T18:59:51.312Z,18.10
2018-06-14T19:02:20.030Z,17.80
2018-06-14T19:04:48.559Z,17.70
2018-06-14T19:07:17.450Z,17.50
2018-06-14T19:09:46.067Z,17.30
2018-06-14T19:12:14.526Z,17.00
2018-06-14T19:14:43.063Z,16.80
2018-06-14T19:17:11.933Z,16.50
2018-06-14T19:19:40.595Z,16.40
2018-06-14T19:22:09.139Z,16.00
2018-06-14T19:24:37.616Z,15.90
2018-06-14T19:27:06.356Z,15.60
2018-06-14T19:29:34.831Z,15.40
2018-06-14T19:32:03.573Z,15.30
2018-06-14T19:34:32.116Z,15.10
2018-06-14T19:37:01.567Z,14.90
2018-06-14T19:39:30.170Z,14.80
2018-06-14T19:41:58.762Z,14.70
2018-06-14T19:44:27.306Z,14.50
2018-06-14T19:46:56.046Z,14.40
2018-06-14T19:49:26.328Z,14.30
2018-06-14T19:51:56.318Z,14.10
2018-06-14T19:54:25.957Z,13.80
2018-06-14T19:56:54.769Z,13.60
2018-06-14T19:59:23.457Z,13.50
2018-06-14T20:01:52.426Z,13.50
2018-06-14T20:04:21.515Z,13.40
2018-06-14T20:06:50.283Z,13.30
2018-06-14T20:11:47.143Z,13.20
2018-06-14T20:14:15.757Z,13.10
2018-06-14T20:16:44.348Z,13.10
2018-06-14T20:19:12.876Z,13.10
2018-06-14T20:21:41.657Z,13.20
2018-06-14T20:24:10.298Z,13.20
2018-06-14T20:26:38.944Z,13.20
2018-06-14T20:29:07.637Z,13.20
2018-06-14T20:31:36.306Z,13.20
2018-06-14T20:34:05.021Z,13.10
2018-06-14T20:36:33.847Z,13.20
2018-06-14T20:39:02.458Z,13.20
2018-06-14T20:41:31.024Z,13.20
2018-06-14T20:43:59.787Z,13.20
2018-06-14T20:46:28.373Z,13.10
2018-06-14T20:48:57.092Z,13.00
2018-06-14T20:51:25.682Z,13.00
2018-06-14T20:53:54.180Z,12.90
2018-06-14T20:56:22.642Z,12.90
2018-06-14T20:58:51.149Z,12.80
2018-06-14T21:01:19.698Z,12.70
2018-06-14T21:03:48.483Z,12.60
2018-06-14T21:06:17.132Z,12.70
2018-06-14T21:08:45.945Z,12.80
2018-06-14T21:11:14.452Z,12.70
2018-06-14T21:13:43.531Z,12.40
2018-06-14T21:16:11.977Z,12.30
2018-06-14T21:18:41.348Z,12.20
2018-06-14T21:21:09.958Z,12.20
2018-06-14T21:23:38.564Z,12.20
2018-06-14T21:26:07.498Z,12.20
2018-06-14T21:28:36.405Z,12.20
2018-06-14T21:31:05.011Z,12.30
2018-06-14T21:33:33.505Z,12.30
2018-06-14T21:36:02.113Z,12.30
2018-06-14T21:38:30.651Z,12.20
2018-06-14T21:40:59.251Z,12.20
2018-06-14T21:43:27.868Z,12.10
2018-06-14T21:45:56.369Z,12.00
2018-06-14T21:48:25.129Z,12.00
2018-06-14T21:50:53.904Z,12.00
2018-06-14T21:53:22.533Z,12.00
2018-06-14T21:55:51.048Z,12.00
2018-06-14T21:58:19.549Z,11.90
2018-06-14T22:00:48.920Z,11.90
2018-06-14T22:03:22.737Z,11.80
2018-06-14T22:05:51.351Z,11.70
2018-06-14T22:08:19.908Z,11.50
2018-06-14T22:10:48.618Z,11.50
2018-06-14T22:13:17.245Z,11.40
2018-06-14T22:15:45.755Z,11.30
2018-06-14T22:18:14.317Z,11.40
2018-06-14T22:20:42.976Z,11.50
2018-06-14T22:23:11.675Z,11.50
2018-06-14T22:25:40.141Z,11.40
2018-06-14T22:28:08.819Z,11.50
2018-06-14T22:30:37.719Z,11.40
2018-06-14T22:33:17.418Z,11.50
2018-06-14T22:35:46.175Z,11.50
2018-06-14T22:38:14.959Z,11.30
2018-06-14T22:40:43.527Z,11.20
2018-06-14T22:43:12.124Z,11.20
2018-06-14T22:45:40.676Z,11.20
2018-06-14T22:48:09.435Z,11.20
2018-06-14T22:50:49.269Z,11.20
2018-06-14T22:53:17.851Z,11.10
2018-06-14T22:55:46.581Z,11.00
2018-06-14T22:58:15.186Z,11.10
2018-06-14T23:00:57.100Z,11.10
2018-06-14T23:03:25.796Z,11.10
2018-06-14T23:05:54.410Z,11.10
2018-06-14T23:08:22.985Z,10.90
2018-06-14T23:11:02.830Z,10.90
2018-06-14T23:13:31.702Z,10.80
2018-06-14T23:18:28.572Z,10.90
2018-06-14T23:20:57.096Z,10.90
2018-06-14T23:23:26.140Z,10.90
2018-06-14T23:25:54.870Z,10.90
2018-06-14T23:28:23.463Z,11.10
2018-06-14T23:30:52.115Z,11.00
2018-06-14T23:33:21.266Z,11.00
2018-06-14T23:35:49.802Z,11.00
2018-06-14T23:38:19.328Z,11.00
2018-06-14T23:40:48.009Z,11.00
2018-06-14T23:43:16.443Z,11.00
2018-06-14T23:45:45.492Z,11.00
2018-06-14T23:48:14.032Z,11.00
2018-06-14T23:50:43.334Z,11.00
2018-06-14T23:53:12.132Z,11.00
2018-06-14T23:55:40.654Z,11.00
